sensor_id;sensor_type;location;lat;lon;timestamp;pressure;altitude;pressure_sealevel;temperature;humidity
66396;BME280;53207;51.378;-1.342;2023-06-14T00:00:47;100300.51;;;32.48;26.58
66396;BME280;53207;51.378;-1.342;2023-06-14T00:03:14;100302.15;;;32.49;26.60
66396;BME280;53207;51.378;-1.342;2023-06-14T00:05:41;100302.57;;;32.44;26.65
66396;BME280;53207;51.378;-1.342;2023-06-14T00:08:09;100306.69;;;32.19;26.67
66396;BME280;53207;51.378;-1.342;2023-06-14T00:10:37;100305.17;;;32.44;26.68
66396;BME280;53207;51.378;-1.342;2023-06-14T00:13:05;100307.14;;;32.67;26.68
66396;BME280;53207;51.378;-1.342;2023-06-14T00:15:32;100307.40;;;32.42;26.73
66396;BME280;53207;51.378;-1.342;2023-06-14T00:17:59;100305.56;;;32.41;26.76
66396;BME280;53207;51.378;-1.342;2023-06-14T00:20:27;100305.13;;;32.62;26.78
66396;BME280;53207;51.378;-1.342;2023-06-14T00:22:54;100306.77;;;32.36;26.83
66396;BME280;53207;51.378;-1.342;2023-06-14T00:25:23;100308.67;;;32.36;26.88
66396;BME280;53207;51.378;-1.342;2023-06-14T00:27:50;100311.43;;;32.56;26.91
66396;BME280;53207;51.378;-1.342;2023-06-14T00:30:17;100311.86;;;32.34;26.94
66396;BME280;53207;51.378;-1.342;2023-06-14T00:32:45;100309.99;;;32.30;26.96
66396;BME280;53207;51.378;-1.342;2023-06-14T00:35:12;100309.63;;;32.30;26.99
66396;BME280;53207;51.378;-1.342;2023-06-14T00:37:40;100310.06;;;32.30;26.99
66396;BME280;53207;51.378;-1.342;2023-06-14T00:40:07;100309.10;;;32.29;26.99
66396;BME280;53207;51.378;-1.342;2023-06-14T00:42:35;100307.43;;;32.28;27.01
66396;BME280;53207;51.378;-1.342;2023-06-14T00:45:03;100312.15;;;32.28;27.02
66396;BME280;53207;51.378;-1.342;2023-06-14T00:47:31;100315.55;;;32.25;27.04
66396;BME280;53207;51.378;-1.342;2023-06-14T00:49:59;100316.93;;;32.22;27.06
66396;BME280;53207;51.378;-1.342;2023-06-14T00:52:27;100318.00;;;32.42;27.07
66396;BME280;53207;51.378;-1.342;2023-06-14T00:54:54;100315.84;;;32.15;27.14
66396;BME280;53207;51.378;-1.342;2023-06-14T00:57:22;100310.34;;;32.12;27.19
66396;BME280;53207;51.378;-1.342;2023-06-14T00:59:49;100310.30;;;32.34;27.18
66396;BME280;53207;51.378;-1.342;2023-06-14T01:02:18;100312.04;;;32.09;27.22
66396;BME280;53207;51.378;-1.342;2023-06-14T01:04:47;100312.18;;;32.26;27.27
66396;BME280;53207;51.378;-1.342;2023-06-14T01:07:25;100312.84;;;32.05;27.26
66396;BME280;53207;51.378;-1.342;2023-06-14T01:10:08;100309.61;;;32.04;27.27
66396;BME280;53207;51.378;-1.342;2023-06-14T01:12:42;100311.34;;;32.25;27.28
66396;BME280;53207;51.378;-1.342;2023-06-14T01:15:13;100310.88;;;32.21;27.34
66396;BME280;53207;51.378;-1.342;2023-06-14T01:17:41;100309.66;;;32.22;27.34
66396;BME280;53207;51.378;-1.342;2023-06-14T01:20:11;100307.06;;;32.21;27.34
66396;BME280;53207;51.378;-1.342;2023-06-14T01:22:50;100308.20;;;31.96;27.35
66396;BME280;53207;51.378;-1.342;2023-06-14T01:25:17;100308.97;;;32.17;27.36
66396;BME280;53207;51.378;-1.342;2023-06-14T01:27:44;100307.96;;;31.96;27.38
66396;BME280;53207;51.378;-1.342;2023-06-14T01:30:12;100313.57;;;32.15;27.41
66396;BME280;53207;51.378;-1.342;2023-06-14T01:32:40;100314.93;;;32.14;27.44
66396;BME280;53207;51.378;-1.342;2023-06-14T01:35:08;100314.78;;;32.12;27.44
66396;BME280;53207;51.378;-1.342;2023-06-14T01:37:35;100311.64;;;31.88;27.44
66396;BME280;53207;51.378;-1.342;2023-06-14T01:40:04;100310.32;;;32.05;27.35
66396;BME280;53207;51.378;-1.342;2023-06-14T01:42:34;100309.94;;;31.78;27.06
66396;BME280;53207;51.378;-1.342;2023-06-14T01:45:03;100309.11;;;31.77;27.06
66396;BME280;53207;51.378;-1.342;2023-06-14T01:47:31;100311.10;;;31.97;27.18
66396;BME280;53207;51.378;-1.342;2023-06-14T01:49:59;100311.51;;;31.76;27.22
66396;BME280;53207;51.378;-1.342;2023-06-14T01:52:26;100318.29;;;31.68;27.09
66396;BME280;53207;51.378;-1.342;2023-06-14T01:54:53;100321.73;;;31.90;26.89
66396;BME280;53207;51.378;-1.342;2023-06-14T01:57:21;100323.03;;;31.86;26.83
66396;BME280;53207;51.378;-1.342;2023-06-14T01:59:49;100325.57;;;31.59;26.86
66396;BME280;53207;51.378;-1.342;2023-06-14T02:02:17;100326.20;;;31.77;26.75
66396;BME280;53207;51.378;-1.342;2023-06-14T02:04:44;100327.75;;;31.79;26.91
66396;BME280;53207;51.378;-1.342;2023-06-14T02:07:12;100326.56;;;32.04;27.08
66396;BME280;53207;51.378;-1.342;2023-06-14T02:09:39;100323.80;;;31.78;27.17
66396;BME280;53207;51.378;-1.342;2023-06-14T02:12:07;100321.86;;;31.71;27.16
66396;BME280;53207;51.378;-1.342;2023-06-14T02:14:35;100323.11;;;31.98;27.15
66396;BME280;53207;51.378;-1.342;2023-06-14T02:17:02;100325.27;;;31.98;27.25
66396;BME280;53207;51.378;-1.342;2023-06-14T02:19:30;100325.08;;;31.71;27.29
66396;BME280;53207;51.378;-1.342;2023-06-14T02:21:57;100325.43;;;31.66;27.36
66396;BME280;53207;51.378;-1.342;2023-06-14T02:24:25;100321.65;;;31.64;27.37
66396;BME280;53207;51.378;-1.342;2023-06-14T02:26:52;100321.30;;;31.66;27.39
66396;BME280;53207;51.378;-1.342;2023-06-14T02:29:19;100321.34;;;31.91;27.42
66396;BME280;53207;51.378;-1.342;2023-06-14T02:31:47;100318.41;;;31.39;27.44
66396;BME280;53207;51.378;-1.342;2023-06-14T02:34:14;100316.22;;;31.60;27.39
66396;BME280;53207;51.378;-1.342;2023-06-14T02:36:42;100318.61;;;31.37;27.43
66396;BME280;53207;51.378;-1.342;2023-06-14T02:39:09;100316.27;;;31.57;27.43
66396;BME280;53207;51.378;-1.342;2023-06-14T02:41:37;100315.78;;;31.82;27.43
66396;BME280;53207;51.378;-1.342;2023-06-14T02:44:04;100313.02;;;31.59;27.35
66396;BME280;53207;51.378;-1.342;2023-06-14T02:46:31;100309.51;;;31.51;27.35
66396;BME280;53207;51.378;-1.342;2023-06-14T02:48:59;100308.44;;;31.49;27.37
66396;BME280;53207;51.378;-1.342;2023-06-14T02:51:26;100307.86;;;31.56;27.32
66396;BME280;53207;51.378;-1.342;2023-06-14T02:53:54;100311.53;;;31.55;27.35
66396;BME280;53207;51.378;-1.342;2023-06-14T02:56:21;100316.10;;;31.56;27.35
66396;BME280;53207;51.378;-1.342;2023-06-14T02:58:49;100314.75;;;31.52;27.37
66396;BME280;53207;51.378;-1.342;2023-06-14T03:01:16;100314.13;;;31.52;27.37
66396;BME280;53207;51.378;-1.342;2023-06-14T03:03:44;100315.28;;;31.44;27.34
66396;BME280;53207;51.378;-1.342;2023-06-14T03:06:11;100317.42;;;31.60;27.46
66396;BME280;53207;51.378;-1.342;2023-06-14T03:08:39;100320.72;;;31.62;27.35
66396;BME280;53207;51.378;-1.342;2023-06-14T03:11:06;100325.01;;;31.57;27.41
66396;BME280;53207;51.378;-1.342;2023-06-14T03:13:34;100326.62;;;31.54;27.46
66396;BME280;53207;51.378;-1.342;2023-06-14T03:16:01;100321.40;;;31.55;27.46
66396;BME280;53207;51.378;-1.342;2023-06-14T03:18:29;100321.83;;;31.56;27.48
66396;BME280;53207;51.378;-1.342;2023-06-14T03:20:57;100321.86;;;31.46;27.52
66396;BME280;53207;51.378;-1.342;2023-06-14T03:23:25;100320.42;;;31.49;27.51
66396;BME280;53207;51.378;-1.342;2023-06-14T03:25:52;100320.03;;;31.45;27.55
66396;BME280;53207;51.378;-1.342;2023-06-14T03:28:19;100322.14;;;31.41;27.53
66396;BME280;53207;51.378;-1.342;2023-06-14T03:30:47;100319.52;;;31.40;27.53
66396;BME280;53207;51.378;-1.342;2023-06-14T03:33:14;100322.80;;;31.39;27.50
66396;BME280;53207;51.378;-1.342;2023-06-14T03:35:42;100324.32;;;31.38;27.55
66396;BME280;53207;51.378;-1.342;2023-06-14T03:38:10;100324.46;;;31.33;27.57
66396;BME280;53207;51.378;-1.342;2023-06-14T03:40:38;100324.79;;;31.32;27.60
66396;BME280;53207;51.378;-1.342;2023-06-14T03:43:05;100323.11;;;31.27;27.58
66396;BME280;53207;51.378;-1.342;2023-06-14T03:45:33;100323.45;;;31.23;27.59
66396;BME280;53207;51.378;-1.342;2023-06-14T03:48:00;100328.12;;;31.25;27.58
66396;BME280;53207;51.378;-1.342;2023-06-14T03:50:27;100333.13;;;31.12;27.64
66396;BME280;53207;51.378;-1.342;2023-06-14T03:52:55;100334.21;;;31.12;27.58
66396;BME280;53207;51.378;-1.342;2023-06-14T03:55:23;100335.26;;;31.17;27.52
66396;BME280;53207;51.378;-1.342;2023-06-14T03:57:50;100336.82;;;31.14;27.54
66396;BME280;53207;51.378;-1.342;2023-06-14T04:00:18;100339.52;;;31.10;27.59
66396;BME280;53207;51.378;-1.342;2023-06-14T04:02:45;100339.61;;;31.12;27.55
66396;BME280;53207;51.378;-1.342;2023-06-14T04:05:13;100342.88;;;31.06;27.53
66396;BME280;53207;51.378;-1.342;2023-06-14T04:07:41;100339.32;;;31.05;27.49
66396;BME280;53207;51.378;-1.342;2023-06-14T04:10:09;100339.18;;;31.06;27.51
66396;BME280;53207;51.378;-1.342;2023-06-14T04:12:36;100331.08;;;31.05;27.53
66396;BME280;53207;51.378;-1.342;2023-06-14T04:15:04;100331.05;;;31.01;27.56
66396;BME280;53207;51.378;-1.342;2023-06-14T04:17:32;100330.74;;;31.02;27.54
66396;BME280;53207;51.378;-1.342;2023-06-14T04:20:00;100333.64;;;31.45;27.51
66396;BME280;53207;51.378;-1.342;2023-06-14T04:22:27;100340.86;;;30.97;27.58
66396;BME280;53207;51.378;-1.342;2023-06-14T04:24:55;100343.12;;;30.91;27.58
66396;BME280;53207;51.378;-1.342;2023-06-14T04:27:23;100341.91;;;30.91;27.61
66396;BME280;53207;51.378;-1.342;2023-06-14T04:29:49;100341.91;;;30.87;27.59
66396;BME280;53207;51.378;-1.342;2023-06-14T04:32:17;100340.16;;;30.88;27.61
66396;BME280;53207;51.378;-1.342;2023-06-14T04:34:44;100339.25;;;30.88;27.57
66396;BME280;53207;51.378;-1.342;2023-06-14T04:37:12;100338.86;;;30.82;27.60
66396;BME280;53207;51.378;-1.342;2023-06-14T04:39:39;100339.73;;;31.02;27.60
66396;BME280;53207;51.378;-1.342;2023-06-14T04:42:07;100341.30;;;30.78;27.61
66396;BME280;53207;51.378;-1.342;2023-06-14T04:44:34;100339.47;;;30.77;27.62
66396;BME280;53207;51.378;-1.342;2023-06-14T04:47:02;100340.89;;;30.75;27.62
66396;BME280;53207;51.378;-1.342;2023-06-14T04:49:29;100344.29;;;31.16;27.66
66396;BME280;53207;51.378;-1.342;2023-06-14T04:51:57;100342.92;;;30.91;27.63
66396;BME280;53207;51.378;-1.342;2023-06-14T04:54:24;100347.25;;;30.70;27.58
66396;BME280;53207;51.378;-1.342;2023-06-14T04:56:52;100345.87;;;30.88;27.59
66396;BME280;53207;51.378;-1.342;2023-06-14T04:59:19;100346.67;;;31.06;27.61
66396;BME280;53207;51.378;-1.342;2023-06-14T05:01:47;100352.99;;;30.60;27.62
66396;BME280;53207;51.378;-1.342;2023-06-14T05:04:14;100356.31;;;30.58;27.62
66396;BME280;53207;51.378;-1.342;2023-06-14T05:06:42;100357.68;;;30.73;27.64
66396;BME280;53207;51.378;-1.342;2023-06-14T05:09:09;100358.38;;;30.77;27.57
66396;BME280;53207;51.378;-1.342;2023-06-14T05:11:37;100358.21;;;30.74;27.63
66396;BME280;53207;51.378;-1.342;2023-06-14T05:14:04;100356.19;;;30.92;27.61
66396;BME280;53207;51.378;-1.342;2023-06-14T05:16:32;100354.23;;;30.49;27.56
66396;BME280;53207;51.378;-1.342;2023-06-14T05:18:59;100356.29;;;30.90;27.57
66396;BME280;53207;51.378;-1.342;2023-06-14T05:21:27;100355.36;;;30.47;27.56
66396;BME280;53207;51.378;-1.342;2023-06-14T05:23:54;100353.06;;;30.89;27.56
66396;BME280;53207;51.378;-1.342;2023-06-14T05:26:22;100354.43;;;30.84;27.63
66396;BME280;53207;51.378;-1.342;2023-06-14T05:28:49;100356.67;;;30.77;27.67
66396;BME280;53207;51.378;-1.342;2023-06-14T05:31:17;100355.02;;;30.38;27.58
66396;BME280;53207;51.378;-1.342;2023-06-14T05:33:44;100352.70;;;30.26;27.64
66396;BME280;53207;51.378;-1.342;2023-06-14T05:36:11;100348.70;;;30.74;27.56
66396;BME280;53207;51.378;-1.342;2023-06-14T05:38:39;100347.01;;;30.51;27.53
66396;BME280;53207;51.378;-1.342;2023-06-14T05:41:06;100348.33;;;30.61;27.66
66396;BME280;53207;51.378;-1.342;2023-06-14T05:43:34;100345.19;;;30.73;27.53
66396;BME280;53207;51.378;-1.342;2023-06-14T05:46:01;100343.78;;;30.21;27.60
66396;BME280;53207;51.378;-1.342;2023-06-14T05:48:30;100340.78;;;30.66;27.57
66396;BME280;53207;51.378;-1.342;2023-06-14T05:50:59;100344.91;;;30.37;27.61
66396;BME280;53207;51.378;-1.342;2023-06-14T05:53:26;100346.64;;;30.60;27.58
66396;BME280;53207;51.378;-1.342;2023-06-14T05:55:54;100349.31;;;30.58;27.63
66396;BME280;53207;51.378;-1.342;2023-06-14T05:58:21;100351.52;;;30.31;27.65
66396;BME280;53207;51.378;-1.342;2023-06-14T06:00:49;100354.66;;;30.48;27.77
66396;BME280;53207;51.378;-1.342;2023-06-14T06:03:16;100352.78;;;30.48;27.78
66396;BME280;53207;51.378;-1.342;2023-06-14T06:05:44;100351.43;;;30.50;27.91
66396;BME280;53207;51.378;-1.342;2023-06-14T06:08:11;100352.01;;;30.48;28.01
66396;BME280;53207;51.378;-1.342;2023-06-14T06:10:39;100355.91;;;30.44;28.09
66396;BME280;53207;51.378;-1.342;2023-06-14T06:13:06;100359.59;;;30.47;28.10
66396;BME280;53207;51.378;-1.342;2023-06-14T06:15:34;100361.39;;;30.46;28.12
66396;BME280;53207;51.378;-1.342;2023-06-14T06:18:01;100363.67;;;30.44;28.20
66396;BME280;53207;51.378;-1.342;2023-06-14T06:20:29;100368.04;;;30.45;28.22
66396;BME280;53207;51.378;-1.342;2023-06-14T06:22:57;100366.72;;;30.44;28.18
66396;BME280;53207;51.378;-1.342;2023-06-14T06:25:25;100367.30;;;30.45;28.26
66396;BME280;53207;51.378;-1.342;2023-06-14T06:27:53;100367.74;;;30.41;28.35
66396;BME280;53207;51.378;-1.342;2023-06-14T06:30:20;100370.52;;;30.43;28.36
66396;BME280;53207;51.378;-1.342;2023-06-14T06:32:48;100370.09;;;30.41;28.35
66396;BME280;53207;51.378;-1.342;2023-06-14T06:35:15;100367.07;;;30.30;28.72
66396;BME280;53207;51.378;-1.342;2023-06-14T06:37:43;100372.16;;;30.41;28.59
66396;BME280;53207;51.378;-1.342;2023-06-14T06:40:10;100375.47;;;30.46;28.61
66396;BME280;53207;51.378;-1.342;2023-06-14T06:42:37;100374.85;;;30.25;28.52
66396;BME280;53207;51.378;-1.342;2023-06-14T06:45:06;100373.70;;;30.47;28.60
66396;BME280;53207;51.378;-1.342;2023-06-14T06:47:33;100370.14;;;30.43;28.62
66396;BME280;53207;51.378;-1.342;2023-06-14T06:50:01;100368.55;;;30.45;28.61
66396;BME280;53207;51.378;-1.342;2023-06-14T06:52:28;100365.52;;;30.49;28.62
66396;BME280;53207;51.378;-1.342;2023-06-14T06:54:57;100363.59;;;30.06;28.83
66396;BME280;53207;51.378;-1.342;2023-06-14T06:57:25;100362.33;;;30.47;28.70
66396;BME280;53207;51.378;-1.342;2023-06-14T06:59:52;100365.32;;;30.51;28.76
66396;BME280;53207;51.378;-1.342;2023-06-14T07:02:20;100365.83;;;30.26;28.87
66396;BME280;53207;51.378;-1.342;2023-06-14T07:04:47;100368.86;;;30.54;28.92
66396;BME280;53207;51.378;-1.342;2023-06-14T07:07:15;100372.25;;;30.52;28.90
66396;BME280;53207;51.378;-1.342;2023-06-14T07:09:42;100373.03;;;30.49;28.70
66396;BME280;53207;51.378;-1.342;2023-06-14T07:12:10;100373.44;;;30.27;28.66
66396;BME280;53207;51.378;-1.342;2023-06-14T07:14:37;100373.08;;;30.51;28.87
66396;BME280;53207;51.378;-1.342;2023-06-14T07:17:05;100377.56;;;30.56;28.81
66396;BME280;53207;51.378;-1.342;2023-06-14T07:19:32;100376.23;;;30.28;28.66
66396;BME280;53207;51.378;-1.342;2023-06-14T07:22:00;100376.02;;;30.31;28.60
66396;BME280;53207;51.378;-1.342;2023-06-14T07:24:27;100373.17;;;30.46;28.71
66396;BME280;53207;51.378;-1.342;2023-06-14T07:26:55;100372.08;;;30.08;28.55
66396;BME280;53207;51.378;-1.342;2023-06-14T07:29:22;100372.75;;;30.05;28.63
66396;BME280;53207;51.378;-1.342;2023-06-14T07:31:50;100372.28;;;30.48;28.62
66396;BME280;53207;51.378;-1.342;2023-06-14T07:34:17;100377.54;;;30.30;28.57
66396;BME280;53207;51.378;-1.342;2023-06-14T07:36:45;100376.30;;;30.08;28.52
66396;BME280;53207;51.378;-1.342;2023-06-14T07:39:13;100378.65;;;30.50;28.57
66396;BME280;53207;51.378;-1.342;2023-06-14T07:41:41;100380.24;;;30.49;28.59
66396;BME280;53207;51.378;-1.342;2023-06-14T07:44:08;100379.51;;;30.54;28.41
66396;BME280;53207;51.378;-1.342;2023-06-14T07:46:35;100381.90;;;30.32;28.43
66396;BME280;53207;51.378;-1.342;2023-06-14T07:49:03;100382.66;;;30.55;28.47
66396;BME280;53207;51.378;-1.342;2023-06-14T07:51:30;100380.59;;;30.57;28.36
66396;BME280;53207;51.378;-1.342;2023-06-14T07:53:59;100382.15;;;30.57;28.43
66396;BME280;53207;51.378;-1.342;2023-06-14T07:56:26;100382.84;;;30.54;28.44
66396;BME280;53207;51.378;-1.342;2023-06-14T07:58:54;100386.19;;;30.53;28.44
66396;BME280;53207;51.378;-1.342;2023-06-14T08:01:21;100384.04;;;30.54;28.37
66396;BME280;53207;51.378;-1.342;2023-06-14T08:03:49;100383.40;;;30.30;28.41
66396;BME280;53207;51.378;-1.342;2023-06-14T08:06:16;100381.16;;;30.58;28.37
66396;BME280;53207;51.378;-1.342;2023-06-14T08:08:44;100382.56;;;30.57;28.47
66396;BME280;53207;51.378;-1.342;2023-06-14T08:11:12;100381.78;;;30.31;28.42
66396;BME280;53207;51.378;-1.342;2023-06-14T08:13:39;100381.30;;;30.54;28.38
66396;BME280;53207;51.378;-1.342;2023-06-14T08:16:06;100382.39;;;30.55;28.40
66396;BME280;53207;51.378;-1.342;2023-06-14T08:18:34;100380.86;;;30.53;28.51
66396;BME280;53207;51.378;-1.342;2023-06-14T08:21:01;100381.09;;;30.57;28.43
66396;BME280;53207;51.378;-1.342;2023-06-14T08:23:29;100380.44;;;30.30;28.41
66396;BME280;53207;51.378;-1.342;2023-06-14T08:25:56;100382.99;;;30.33;28.30
66396;BME280;53207;51.378;-1.342;2023-06-14T08:28:24;100384.18;;;30.54;28.33
66396;BME280;53207;51.378;-1.342;2023-06-14T08:30:52;100383.89;;;30.33;28.46
66396;BME280;53207;51.378;-1.342;2023-06-14T08:33:19;100382.96;;;30.10;28.33
66396;BME280;53207;51.378;-1.342;2023-06-14T08:35:46;100383.86;;;30.33;28.29
66396;BME280;53207;51.378;-1.342;2023-06-14T08:38:14;100382.94;;;30.55;28.49
66396;BME280;53207;51.378;-1.342;2023-06-14T08:40:41;100381.64;;;30.56;28.40
66396;BME280;53207;51.378;-1.342;2023-06-14T08:43:09;100382.78;;;30.57;28.35
66396;BME280;53207;51.378;-1.342;2023-06-14T08:45:36;100384.70;;;30.56;28.35
66396;BME280;53207;51.378;-1.342;2023-06-14T08:48:05;100385.11;;;30.58;28.43
66396;BME280;53207;51.378;-1.342;2023-06-14T08:50:32;100381.70;;;30.57;28.30
66396;BME280;53207;51.378;-1.342;2023-06-14T08:53:02;100381.21;;;30.57;28.34
66396;BME280;53207;51.378;-1.342;2023-06-14T08:55:30;100380.70;;;30.63;28.38
66396;BME280;53207;51.378;-1.342;2023-06-14T08:57:58;100381.42;;;30.36;28.35
66396;BME280;53207;51.378;-1.342;2023-06-14T09:00:27;100382.51;;;30.33;28.41
66396;BME280;53207;51.378;-1.342;2023-06-14T09:02:55;100383.91;;;30.62;28.42
66396;BME280;53207;51.378;-1.342;2023-06-14T09:05:23;100382.17;;;30.34;28.41
66396;BME280;53207;51.378;-1.342;2023-06-14T09:07:51;100380.64;;;30.61;28.30
66396;BME280;53207;51.378;-1.342;2023-06-14T09:10:20;100382.42;;;30.42;28.33
66396;BME280;53207;51.378;-1.342;2023-06-14T09:12:48;100380.73;;;30.17;28.35
66396;BME280;53207;51.378;-1.342;2023-06-14T09:15:15;100382.96;;;30.63;28.42
66396;BME280;53207;51.378;-1.342;2023-06-14T09:17:43;100384.29;;;30.64;28.38
66396;BME280;53207;51.378;-1.342;2023-06-14T09:20:11;100390.41;;;30.23;28.37
66396;BME280;53207;51.378;-1.342;2023-06-14T09:22:38;100390.22;;;30.63;28.34
66396;BME280;53207;51.378;-1.342;2023-06-14T09:25:07;100393.22;;;30.64;28.26
66396;BME280;53207;51.378;-1.342;2023-06-14T09:27:34;100396.13;;;30.44;28.34
66396;BME280;53207;51.378;-1.342;2023-06-14T09:30:03;100397.49;;;30.41;28.25
66396;BME280;53207;51.378;-1.342;2023-06-14T09:32:30;100398.17;;;30.45;28.35
66396;BME280;53207;51.378;-1.342;2023-06-14T09:34:58;100395.69;;;30.44;28.31
66396;BME280;53207;51.378;-1.342;2023-06-14T09:37:27;100395.14;;;30.68;28.35
66396;BME280;53207;51.378;-1.342;2023-06-14T09:39:55;100394.65;;;30.43;28.36
66396;BME280;53207;51.378;-1.342;2023-06-14T09:42:23;100399.53;;;30.48;28.37
66396;BME280;53207;51.378;-1.342;2023-06-14T09:44:50;100396.93;;;30.71;28.34
66396;BME280;53207;51.378;-1.342;2023-06-14T09:47:18;100397.37;;;30.68;28.30
66396;BME280;53207;51.378;-1.342;2023-06-14T09:49:46;100400.28;;;30.29;28.36
66396;BME280;53207;51.378;-1.342;2023-06-14T09:52:15;100398.60;;;30.49;28.31
66396;BME280;53207;51.378;-1.342;2023-06-14T09:54:44;100400.94;;;30.50;28.29
66396;BME280;53207;51.378;-1.342;2023-06-14T09:57:14;100399.45;;;30.74;28.29
66396;BME280;53207;51.378;-1.342;2023-06-14T09:59:43;100395.01;;;30.51;28.13
66396;BME280;53207;51.378;-1.342;2023-06-14T10:02:14;100392.69;;;30.50;28.32
66396;BME280;53207;51.378;-1.342;2023-06-14T10:04:49;100396.37;;;30.54;28.27
66396;BME280;53207;51.378;-1.342;2023-06-14T10:07:20;100395.55;;;30.76;28.29
66396;BME280;53207;51.378;-1.342;2023-06-14T10:09:48;100396.86;;;30.75;28.23
66396;BME280;53207;51.378;-1.342;2023-06-14T10:12:17;100393.85;;;30.58;28.24
66396;BME280;53207;51.378;-1.342;2023-06-14T10:14:44;100397.86;;;30.78;28.16
66396;BME280;53207;51.378;-1.342;2023-06-14T10:17:20;100396.85;;;30.36;28.08
66396;BME280;53207;51.378;-1.342;2023-06-14T10:19:54;100391.91;;;30.51;28.21
66396;BME280;53207;51.378;-1.342;2023-06-14T10:22:28;100392.13;;;30.81;28.22
66396;BME280;53207;51.378;-1.342;2023-06-14T10:24:56;100389.46;;;30.55;28.19
66396;BME280;53207;51.378;-1.342;2023-06-14T10:27:24;100394.38;;;30.58;28.23
66396;BME280;53207;51.378;-1.342;2023-06-14T10:30:08;100390.38;;;30.59;28.27
66396;BME280;53207;51.378;-1.342;2023-06-14T10:33:03;100386.97;;;30.73;28.23
66396;BME280;53207;51.378;-1.342;2023-06-14T10:35:31;100383.25;;;30.34;28.21
66396;BME280;53207;51.378;-1.342;2023-06-14T10:38:07;100387.83;;;30.73;28.28
66396;BME280;53207;51.378;-1.342;2023-06-14T10:40:35;100387.31;;;30.34;28.23
66396;BME280;53207;51.378;-1.342;2023-06-14T10:43:21;100387.88;;;30.81;28.19
66396;BME280;53207;51.378;-1.342;2023-06-14T10:46:29;100387.48;;;30.79;28.26
66396;BME280;53207;51.378;-1.342;2023-06-14T10:48:57;100384.37;;;30.57;28.27
66396;BME280;53207;51.378;-1.342;2023-06-14T10:51:24;100388.15;;;30.78;28.27
66396;BME280;53207;51.378;-1.342;2023-06-14T10:53:52;100384.51;;;30.57;28.31
66396;BME280;53207;51.378;-1.342;2023-06-14T10:56:28;100386.67;;;30.77;28.36
66396;BME280;53207;51.378;-1.342;2023-06-14T10:58:55;100385.55;;;30.78;28.36
66396;BME280;53207;51.378;-1.342;2023-06-14T11:01:35;100386.83;;;30.76;28.39
66396;BME280;53207;51.378;-1.342;2023-06-14T11:04:10;100388.68;;;30.57;28.39
66396;BME280;53207;51.378;-1.342;2023-06-14T11:06:46;100386.57;;;30.81;28.38
66396;BME280;53207;51.378;-1.342;2023-06-14T11:09:31;100381.78;;;30.60;28.40
66396;BME280;53207;51.378;-1.342;2023-06-14T11:12:07;100379.76;;;30.40;28.41
66396;BME280;53207;51.378;-1.342;2023-06-14T11:14:36;100375.18;;;30.65;28.38
66396;BME280;53207;51.378;-1.342;2023-06-14T11:17:04;100374.46;;;30.42;28.39
66396;BME280;53207;51.378;-1.342;2023-06-14T11:19:32;100379.10;;;30.87;28.41
66396;BME280;53207;51.378;-1.342;2023-06-14T11:21:59;100375.97;;;30.88;28.40
66396;BME280;53207;51.378;-1.342;2023-06-14T11:24:27;100373.59;;;30.44;28.42
66396;BME280;53207;51.378;-1.342;2023-06-14T11:26:55;100370.00;;;30.40;28.47
66396;BME280;53207;51.378;-1.342;2023-06-14T11:29:23;100365.12;;;30.44;28.44
66396;BME280;53207;51.378;-1.342;2023-06-14T11:31:51;100362.20;;;30.46;28.42
66396;BME280;53207;51.378;-1.342;2023-06-14T11:34:18;100362.01;;;30.89;28.47
66396;BME280;53207;51.378;-1.342;2023-06-14T11:36:46;100364.05;;;30.69;28.44
66396;BME280;53207;51.378;-1.342;2023-06-14T11:39:13;100362.22;;;30.69;28.46
66396;BME280;53207;51.378;-1.342;2023-06-14T11:41:42;100359.46;;;30.51;28.42
66396;BME280;53207;51.378;-1.342;2023-06-14T11:44:11;100360.96;;;30.50;28.45
66396;BME280;53207;51.378;-1.342;2023-06-14T11:46:39;100356.68;;;30.52;28.43
66396;BME280;53207;51.378;-1.342;2023-06-14T11:49:07;100354.95;;;30.53;28.43
66396;BME280;53207;51.378;-1.342;2023-06-14T11:51:35;100357.24;;;30.52;28.45
66396;BME280;53207;51.378;-1.342;2023-06-14T11:54:04;100350.06;;;30.99;28.45
66396;BME280;53207;51.378;-1.342;2023-06-14T11:56:32;100346.58;;;30.56;28.43
66396;BME280;53207;51.378;-1.342;2023-06-14T11:58:59;100347.32;;;30.56;28.47
66396;BME280;53207;51.378;-1.342;2023-06-14T12:01:27;100342.69;;;30.56;28.47
66396;BME280;53207;51.378;-1.342;2023-06-14T12:03:54;100337.46;;;30.59;28.45
66396;BME280;53207;51.378;-1.342;2023-06-14T12:06:30;100332.40;;;30.81;28.46
66396;BME280;53207;51.378;-1.342;2023-06-14T12:08:57;100330.65;;;30.61;28.38
66396;BME280;53207;51.378;-1.342;2023-06-14T12:11:31;100333.12;;;30.62;28.40
66396;BME280;53207;51.378;-1.342;2023-06-14T12:13:58;100337.81;;;30.63;28.44
66396;BME280;53207;51.378;-1.342;2023-06-14T12:16:30;100333.61;;;30.88;28.41
66396;BME280;53207;51.378;-1.342;2023-06-14T12:19:00;100337.72;;;30.67;28.42
66396;BME280;53207;51.378;-1.342;2023-06-14T12:21:28;100336.51;;;31.16;28.37
66396;BME280;53207;51.378;-1.342;2023-06-14T12:23:56;100335.68;;;30.72;28.36
66396;BME280;53207;51.378;-1.342;2023-06-14T12:26:24;100331.47;;;30.70;28.33
66396;BME280;53207;51.378;-1.342;2023-06-14T12:28:52;100328.66;;;30.73;28.25
66396;BME280;53207;51.378;-1.342;2023-06-14T12:31:19;100335.28;;;31.17;28.20
66396;BME280;53207;51.378;-1.342;2023-06-14T12:33:47;100331.90;;;30.73;28.20
66396;BME280;53207;51.378;-1.342;2023-06-14T12:36:14;100335.91;;;30.96;28.11
66396;BME280;53207;51.378;-1.342;2023-06-14T12:38:42;100339.18;;;30.71;28.14
66396;BME280;53207;51.378;-1.342;2023-06-14T12:41:09;100337.28;;;31.18;28.09
66396;BME280;53207;51.378;-1.342;2023-06-14T12:43:37;100334.72;;;30.74;28.04
66396;BME280;53207;51.378;-1.342;2023-06-14T12:46:04;100337.23;;;30.50;27.98